sensor_id;sensor_type;location;lat;lon;timestamp;pressure;altitude;pressure_sealevel;temperature;humidity
10587;BME280;5341;47.606;7.576;2023-08-08T00:01:14;99074.00;;;19.53;48.71
10587;BME280;5341;47.606;7.576;2023-08-08T00:03:42;99076.13;;;19.51;48.78
10587;BME280;5341;47.606;7.576;2023-08-08T00:06:10;99085.31;;;19.50;48.82
10587;BME280;5341;47.606;7.576;2023-08-08T00:08:38;99079.88;;;19.50;48.74
10587;BME280;5341;47.606;7.576;2023-08-08T00:11:06;99089.09;;;19.49;48.81
10587;BME280;5341;47.606;7.576;2023-08-08T00:13:33;99077.63;;;19.47;48.75
10587;BME280;5341;47.606;7.576;2023-08-08T00:16:01;99079.53;;;19.46;48.77
10587;BME280;5341;47.606;7.576;2023-08-08T00:18:28;99066.19;;;19.45;48.73
10587;BME280;5341;47.606;7.576;2023-08-08T00:20:55;99075.41;;;19.44;48.60
10587;BME280;5341;47.606;7.576;2023-08-08T00:23:25;99080.81;;;19.44;48.76
10587;BME280;5341;47.606;7.576;2023-08-08T00:25:52;99066.66;;;19.42;48.76
10587;BME280;5341;47.606;7.576;2023-08-08T00:28:20;99070.44;;;19.41;48.88
10587;BME280;5341;47.606;7.576;2023-08-08T00:30:47;99074.22;;;19.40;48.83
10587;BME280;5341;47.606;7.576;2023-08-08T00:33:16;99061.72;;;19.39;48.70
10587;BME280;5341;47.606;7.576;2023-08-08T00:35:44;99061.09;;;19.37;48.42
10587;BME280;5341;47.606;7.576;2023-08-08T00:38:11;99064.63;;;19.37;48.71
10587;BME280;5341;47.606;7.576;2023-08-08T00:40:42;99058.63;;;19.35;48.74
10587;BME280;5341;47.606;7.576;2023-08-08T00:43:09;99063.22;;;19.35;48.57
10587;BME280;5341;47.606;7.576;2023-08-08T00:45:38;99056.97;;;19.34;48.69
10587;BME280;5341;47.606;7.576;2023-08-08T00:48:06;99068.28;;;19.31;48.72
10587;BME280;5341;47.606;7.576;2023-08-08T00:50:34;99057.69;;;19.29;48.78
10587;BME280;5341;47.606;7.576;2023-08-08T00:53:04;99060.63;;;19.28;48.71
10587;BME280;5341;47.606;7.576;2023-08-08T00:55:32;99062.50;;;19.27;48.67
10587;BME280;5341;47.606;7.576;2023-08-08T00:58:03;99066.03;;;19.28;48.77
10587;BME280;5341;47.606;7.576;2023-08-08T01:00:31;99060.00;;;19.26;48.77
10587;BME280;5341;47.606;7.576;2023-08-08T01:02:59;99055.63;;;19.25;48.73
10587;BME280;5341;47.606;7.576;2023-08-08T01:05:31;99051.28;;;19.24;48.78
10587;BME280;5341;47.606;7.576;2023-08-08T01:08:04;99046.09;;;19.22;48.53
10587;BME280;5341;47.606;7.576;2023-08-08T01:10:34;99044.44;;;19.21;48.67
10587;BME280;5341;47.606;7.576;2023-08-08T01:13:07;99046.56;;;19.19;48.89
10587;BME280;5341;47.606;7.576;2023-08-08T01:15:36;99044.31;;;19.16;48.71
10587;BME280;5341;47.606;7.576;2023-08-08T01:18:06;99047.25;;;19.15;48.63
10587;BME280;5341;47.606;7.576;2023-08-08T01:20:34;99038.50;;;19.13;48.79
10587;BME280;5341;47.606;7.576;2023-08-08T01:23:09;99048.53;;;19.12;48.88
10587;BME280;5341;47.606;7.576;2023-08-08T01:25:40;99052.53;;;19.10;48.77
10587;BME280;5341;47.606;7.576;2023-08-08T01:28:09;99044.63;;;19.08;48.82
10587;BME280;5341;47.606;7.576;2023-08-08T01:30:37;99039.44;;;19.07;48.86
10587;BME280;5341;47.606;7.576;2023-08-08T01:33:05;99048.63;;;19.06;48.86
10587;BME280;5341;47.606;7.576;2023-08-08T01:35:38;99041.56;;;19.05;48.74
10587;BME280;5341;47.606;7.576;2023-08-08T01:38:11;99039.91;;;19.03;48.76
10587;BME280;5341;47.606;7.576;2023-08-08T01:40:43;99046.41;;;19.02;48.88
10587;BME280;5341;47.606;7.576;2023-08-08T01:43:11;99041.16;;;19.01;48.71
10587;BME280;5341;47.606;7.576;2023-08-08T01:45:40;99034.94;;;19.00;48.91
10587;BME280;5341;47.606;7.576;2023-08-08T01:48:08;99042.22;;;19.00;48.86
10587;BME280;5341;47.606;7.576;2023-08-08T01:50:36;99047.88;;;18.98;48.92
10587;BME280;5341;47.606;7.576;2023-08-08T01:53:04;99041.63;;;18.98;48.75
10587;BME280;5341;47.606;7.576;2023-08-08T01:55:31;99031.03;;;18.96;48.75
10587;BME280;5341;47.606;7.576;2023-08-08T01:58:00;99042.94;;;18.95;48.76
10587;BME280;5341;47.606;7.576;2023-08-08T02:00:27;99035.88;;;18.94;48.74
10587;BME280;5341;47.606;7.576;2023-08-08T02:02:55;99033.16;;;18.94;48.79
10587;BME280;5341;47.606;7.576;2023-08-08T02:05:22;99031.50;;;18.93;48.64
10587;BME280;5341;47.606;7.576;2023-08-08T02:07:50;99028.19;;;18.91;48.78
10587;BME280;5341;47.606;7.576;2023-08-08T02:10:17;99026.53;;;18.90;48.79
10587;BME280;5341;47.606;7.576;2023-08-08T02:12:47;99032.78;;;18.91;48.79
10587;BME280;5341;47.606;7.576;2023-08-08T02:15:16;99030.28;;;18.89;48.76
10587;BME280;5341;47.606;7.576;2023-08-08T02:17:45;99030.53;;;18.88;48.58
10587;BME280;5341;47.606;7.576;2023-08-08T02:20:14;99025.31;;;18.86;48.81
10587;BME280;5341;47.606;7.576;2023-08-08T02:22:41;99025.56;;;18.85;48.82
10587;BME280;5341;47.606;7.576;2023-08-08T02:25:09;99028.28;;;18.85;48.65
10587;BME280;5341;47.606;7.576;2023-08-08T02:27:38;99024.16;;;18.82;48.80
10587;BME280;5341;47.606;7.576;2023-08-08T02:30:10;99023.31;;;18.82;48.62
10587;BME280;5341;47.606;7.576;2023-08-08T02:32:39;99019.78;;;18.81;48.92
10587;BME280;5341;47.606;7.576;2023-08-08T02:35:08;99022.72;;;18.80;48.66
10587;BME280;5341;47.606;7.576;2023-08-08T02:37:35;99020.25;;;18.78;48.73
10587;BME280;5341;47.606;7.576;2023-08-08T02:40:04;99030.47;;;18.76;48.82
10587;BME280;5341;47.606;7.576;2023-08-08T02:42:33;99034.22;;;18.75;48.84
10587;BME280;5341;47.606;7.576;2023-08-08T02:45:01;99043.41;;;18.74;48.73
10587;BME280;5341;47.606;7.576;2023-08-08T02:47:28;99041.75;;;18.73;48.86
10587;BME280;5341;47.606;7.576;2023-08-08T02:49:57;99038.22;;;18.72;48.71
10587;BME280;5341;47.606;7.576;2023-08-08T02:52:25;99035.75;;;18.71;48.76
10587;BME280;5341;47.606;7.576;2023-08-08T02:54:52;99034.09;;;18.70;48.94
10587;BME280;5341;47.606;7.576;2023-08-08T02:57:21;99030.56;;;18.69;48.92
10587;BME280;5341;47.606;7.576;2023-08-08T02:59:48;99038.09;;;18.67;48.82
10587;BME280;5341;47.606;7.576;2023-08-08T03:02:16;99027.50;;;18.66;48.76
10587;BME280;5341;47.606;7.576;2023-08-08T03:04:45;99027.69;;;18.64;48.74
10587;BME280;5341;47.606;7.576;2023-08-08T03:07:17;99035.00;;;18.64;48.75
10587;BME280;5341;47.606;7.576;2023-08-08T03:09:45;99034.38;;;18.62;48.85
10587;BME280;5341;47.606;7.576;2023-08-08T03:12:12;99030.00;;;18.61;48.79
10587;BME280;5341;47.606;7.576;2023-08-08T03:14:40;99033.78;;;18.60;48.85
10587;BME280;5341;47.606;7.576;2023-08-08T03:17:09;99035.66;;;18.59;48.99
10587;BME280;5341;47.606;7.576;2023-08-08T03:19:39;99034.84;;;18.59;48.89
10587;BME280;5341;47.606;7.576;2023-08-08T03:22:10;99041.31;;;18.58;48.89
10587;BME280;5341;47.606;7.576;2023-08-08T03:24:40;99052.16;;;18.58;48.91
10587;BME280;5341;47.606;7.576;2023-08-08T03:27:08;99043.41;;;18.56;48.89
10587;BME280;5341;47.606;7.576;2023-08-08T03:29:36;99037.19;;;18.55;48.81
10587;BME280;5341;47.606;7.576;2023-08-08T03:32:05;99034.69;;;18.54;48.81
10587;BME280;5341;47.606;7.576;2023-08-08T03:34:33;99027.84;;;18.51;48.86
10587;BME280;5341;47.606;7.576;2023-08-08T03:37:02;99025.34;;;18.50;48.94
10587;BME280;5341;47.606;7.576;2023-08-08T03:39:31;99025.59;;;18.48;49.14
10587;BME280;5341;47.606;7.576;2023-08-08T03:42:00;99029.34;;;18.47;48.98
10587;BME280;5341;47.606;7.576;2023-08-08T03:44:29;99033.13;;;18.46;48.99
10587;BME280;5341;47.606;7.576;2023-08-08T03:46:56;99041.47;;;18.44;49.02
10587;BME280;5341;47.606;7.576;2023-08-08T03:49:27;99040.88;;;18.42;49.19
10587;BME280;5341;47.606;7.576;2023-08-08T03:51:56;99041.94;;;18.41;48.81
10587;BME280;5341;47.606;7.576;2023-08-08T03:54:24;99044.00;;;18.39;49.12
10587;BME280;5341;47.606;7.576;2023-08-08T03:56:53;99044.00;;;18.39;49.25
10587;BME280;5341;47.606;7.576;2023-08-08T03:59:23;99046.13;;;18.37;49.08
10587;BME280;5341;47.606;7.576;2023-08-08T04:01:54;99044.47;;;18.36;49.04
10587;BME280;5341;47.606;7.576;2023-08-08T04:04:22;99046.56;;;18.34;49.14
10587;BME280;5341;47.606;7.576;2023-08-08T04:06:50;99043.28;;;18.32;49.30
10587;BME280;5341;47.606;7.576;2023-08-08T04:09:17;99045.38;;;18.30;49.21
10587;BME280;5341;47.606;7.576;2023-08-08T04:11:46;99048.09;;;18.30;49.30
10587;BME280;5341;47.606;7.576;2023-08-08T04:14:13;99049.16;;;18.29;49.25
10587;BME280;5341;47.606;7.576;2023-08-08T04:16:42;99050.41;;;18.27;49.43
10587;BME280;5341;47.606;7.576;2023-08-08T04:19:10;99054.16;;;18.26;49.22
10587;BME280;5341;47.606;7.576;2023-08-08T04:21:38;99055.22;;;18.25;49.53
10587;BME280;5341;47.606;7.576;2023-08-08T04:24:07;99054.38;;;18.24;49.52
10587;BME280;5341;47.606;7.576;2023-08-08T04:26:35;99061.69;;;18.24;49.44
10587;BME280;5341;47.606;7.576;2023-08-08T04:29:04;99052.72;;;18.23;49.45
10587;BME280;5341;47.606;7.576;2023-08-08T04:31:33;99059.22;;;18.22;49.49
10587;BME280;5341;47.606;7.576;2023-08-08T04:34:02;99058.16;;;18.23;49.29
10587;BME280;5341;47.606;7.576;2023-08-08T04:36:30;99058.16;;;18.23;49.28
10587;BME280;5341;47.606;7.576;2023-08-08T04:38:58;99049.19;;;18.23;49.26
10587;BME280;5341;47.606;7.576;2023-08-08T04:41:25;99053.78;;;18.22;49.23
10587;BME280;5341;47.606;7.576;2023-08-08T04:43:53;99054.84;;;18.21;49.26
10587;BME280;5341;47.606;7.576;2023-08-08T04:46:20;99053.19;;;18.20;49.30
10587;BME280;5341;47.606;7.576;2023-08-08T04:48:48;99056.72;;;18.21;49.36
10587;BME280;5341;47.606;7.576;2023-08-08T04:51:17;99052.38;;;18.20;49.24
10587;BME280;5341;47.606;7.576;2023-08-08T04:53:45;99053.41;;;18.19;49.48
10587;BME280;5341;47.606;7.576;2023-08-08T04:56:12;99057.78;;;18.20;49.28
10587;BME280;5341;47.606;7.576;2023-08-08T04:58:40;99063.19;;;18.20;49.37
10587;BME280;5341;47.606;7.576;2023-08-08T05:01:07;99061.31;;;18.20;49.43
10587;BME280;5341;47.606;7.576;2023-08-08T05:03:40;99059.44;;;18.21;49.55
10587;BME280;5341;47.606;7.576;2023-08-08T05:06:07;99060.72;;;18.18;49.49
10587;BME280;5341;47.606;7.576;2023-08-08T05:08:36;99057.19;;;18.18;49.52
10587;BME280;5341;47.606;7.576;2023-08-08T05:11:03;99058.44;;;18.15;49.68
10587;BME280;5341;47.606;7.576;2023-08-08T05:13:31;99060.31;;;18.14;49.91
10587;BME280;5341;47.606;7.576;2023-08-08T05:15:58;99063.03;;;18.14;49.91
10587;BME280;5341;47.606;7.576;2023-08-08T05:18:26;99062.19;;;18.14;50.09
10587;BME280;5341;47.606;7.576;2023-08-08T05:20:53;99062.19;;;18.14;49.83
10587;BME280;5341;47.606;7.576;2023-08-08T05:23:21;99062.19;;;18.14;50.19
10587;BME280;5341;47.606;7.576;2023-08-08T05:25:50;99067.38;;;18.15;50.17
10587;BME280;5341;47.606;7.576;2023-08-08T05:28:17;99072.78;;;18.15;50.28
10587;BME280;5341;47.606;7.576;2023-08-08T05:30:44;99062.59;;;18.18;50.27
10587;BME280;5341;47.606;7.576;2023-08-08T05:33:12;99063.41;;;18.18;50.40
10587;BME280;5341;47.606;7.576;2023-08-08T05:35:39;99064.84;;;18.21;50.18
10587;BME280;5341;47.606;7.576;2023-08-08T05:38:07;99056.72;;;18.21;50.29
10587;BME280;5341;47.606;7.576;2023-08-08T05:40:34;99051.31;;;18.21;50.43
10587;BME280;5341;47.606;7.576;2023-08-08T05:43:04;99057.31;;;18.23;50.52
10587;BME280;5341;47.606;7.576;2023-08-08T05:45:31;99058.16;;;18.23;50.45
10587;BME280;5341;47.606;7.576;2023-08-08T05:47:59;99054.63;;;18.23;50.64
10587;BME280;5341;47.606;7.576;2023-08-08T05:50:27;99056.50;;;18.22;50.59
10587;BME280;5341;47.606;7.576;2023-08-08T05:52:54;99057.78;;;18.20;50.83
10587;BME280;5341;47.606;7.576;2023-08-08T05:55:22;99061.31;;;18.20;50.69
10587;BME280;5341;47.606;7.576;2023-08-08T05:57:49;99055.66;;;18.22;50.97
10587;BME280;5341;47.606;7.576;2023-08-08T06:00:18;99058.97;;;18.24;51.01
10587;BME280;5341;47.606;7.576;2023-08-08T06:02:46;99056.88;;;18.26;50.72
10587;BME280;5341;47.606;7.576;2023-08-08T06:05:13;99054.75;;;18.28;51.07
10587;BME280;5341;47.606;7.576;2023-08-08T06:07:40;99051.22;;;18.27;51.00
10587;BME280;5341;47.606;7.576;2023-08-08T06:10:09;99048.91;;;18.31;51.15
10587;BME280;5341;47.606;7.576;2023-08-08T06:12:36;99049.50;;;18.33;51.17
10587;BME280;5341;47.606;7.576;2023-08-08T06:15:04;99040.09;;;18.35;51.16
10587;BME280;5341;47.606;7.576;2023-08-08T06:17:33;99049.66;;;18.38;51.15
10587;BME280;5341;47.606;7.576;2023-08-08T06:20:01;99050.47;;;18.38;51.25
10587;BME280;5341;47.606;7.576;2023-08-08T06:22:28;99055.47;;;18.41;51.13
10587;BME280;5341;47.606;7.576;2023-08-08T06:24:56;99059.59;;;18.44;51.35
10587;BME280;5341;47.606;7.576;2023-08-08T06:27:23;99060.78;;;18.48;51.40
10587;BME280;5341;47.606;7.576;2023-08-08T06:29:51;99056.38;;;18.54;51.29
10587;BME280;5341;47.606;7.576;2023-08-08T06:32:18;99066.50;;;18.58;51.49
10587;BME280;5341;47.606;7.576;2023-08-08T06:34:47;99060.41;;;18.63;51.54
10587;BME280;5341;47.606;7.576;2023-08-08T06:37:14;99065.41;;;18.66;51.41
10587;BME280;5341;47.606;7.576;2023-08-08T06:39:42;99062.84;;;18.71;51.50
10587;BME280;5341;47.606;7.576;2023-08-08T06:42:09;99050.50;;;18.75;51.40
10587;BME280;5341;47.606;7.576;2023-08-08T06:44:48;99044.63;;;18.78;51.56
10587;BME280;5341;47.606;7.576;2023-08-08T06:47:15;99045.81;;;18.82;51.54
10587;BME280;5341;47.606;7.576;2023-08-08T06:49:43;99045.94;;;18.87;51.41
10587;BME280;5341;47.606;7.576;2023-08-08T06:52:11;99041.97;;;18.90;51.79
10587;BME280;5341;47.606;7.576;2023-08-08T06:54:39;99049.41;;;18.94;51.69
10587;BME280;5341;47.606;7.576;2023-08-08T06:57:06;99059.56;;;18.99;51.86
10587;BME280;5341;47.606;7.576;2023-08-08T06:59:34;99055.34;;;19.03;51.76
10587;BME280;5341;47.606;7.576;2023-08-08T07:02:01;99059.25;;;19.07;51.73
10587;BME280;5341;47.606;7.576;2023-08-08T07:04:29;99052.28;;;19.11;51.53
10587;BME280;5341;47.606;7.576;2023-08-08T07:06:56;99047.47;;;19.13;51.51
10587;BME280;5341;47.606;7.576;2023-08-08T07:09:25;99050.91;;;19.20;52.20
10587;BME280;5341;47.606;7.576;2023-08-08T07:11:53;99050.84;;;19.27;51.93
10587;BME280;5341;47.606;7.576;2023-08-08T07:14:21;99049.31;;;19.31;51.86
10587;BME280;5341;47.606;7.576;2023-08-08T07:16:49;99042.13;;;19.37;51.64
10587;BME280;5341;47.606;7.576;2023-08-08T07:19:16;99049.56;;;19.41;51.76
10587;BME280;5341;47.606;7.576;2023-08-08T07:21:45;99041.78;;;19.45;51.38
10587;BME280;5341;47.606;7.576;2023-08-08T07:24:12;99039.44;;;19.48;51.46
10587;BME280;5341;47.606;7.576;2023-08-08T07:26:42;99039.38;;;19.55;51.57
10587;BME280;5341;47.606;7.576;2023-08-08T07:29:10;99040.53;;;19.59;51.38
10587;BME280;5341;47.606;7.576;2023-08-08T07:31:40;99039.03;;;19.63;51.17
10587;BME280;5341;47.606;7.576;2023-08-08T07:34:07;99038.56;;;19.66;51.04
10587;BME280;5341;47.606;7.576;2023-08-08T07:36:35;99033.97;;;19.67;51.02
10587;BME280;5341;47.606;7.576;2023-08-08T07:39:02;99025.34;;;19.70;51.04
10587;BME280;5341;47.606;7.576;2023-08-08T07:41:31;99025.09;;;19.71;51.11
10587;BME280;5341;47.606;7.576;2023-08-08T07:44:00;99031.72;;;19.75;51.30
10587;BME280;5341;47.606;7.576;2023-08-08T07:46:27;99028.53;;;19.78;51.13
10587;BME280;5341;47.606;7.576;2023-08-08T07:48:55;99028.88;;;19.82;50.95
10587;BME280;5341;47.606;7.576;2023-08-08T07:51:25;99014.00;;;19.84;51.04
10587;BME280;5341;47.606;7.576;2023-08-08T07:53:52;99026.66;;;19.90;50.82
10587;BME280;5341;47.606;7.576;2023-08-08T07:56:20;99035.97;;;19.95;50.69
10587;BME280;5341;47.606;7.576;2023-08-08T07:58:47;99021.91;;;19.98;50.30
10587;BME280;5341;47.606;7.576;2023-08-08T08:01:16;99021.81;;;20.04;50.35
10587;BME280;5341;47.606;7.576;2023-08-08T08:03:44;99022.97;;;20.08;50.50
10587;BME280;5341;47.606;7.576;2023-08-08T08:06:12;99019.09;;;20.16;50.56
10587;BME280;5341;47.606;7.576;2023-08-08T08:08:39;99018.13;;;20.22;50.63
10587;BME280;5341;47.606;7.576;2023-08-08T08:11:06;99009.84;;;20.29;50.44
10587;BME280;5341;47.606;7.576;2023-08-08T08:13:34;99025.78;;;20.37;49.93
10587;BME280;5341;47.606;7.576;2023-08-08T08:16:01;99019.19;;;20.44;50.03
10587;BME280;5341;47.606;7.576;2023-08-08T08:18:30;99022.34;;;20.53;49.89
10587;BME280;5341;47.606;7.576;2023-08-08T08:20:59;99017.13;;;20.63;49.49
10587;BME280;5341;47.606;7.576;2023-08-08T08:23:27;99023.03;;;20.72;48.79
10587;BME280;5341;47.606;7.576;2023-08-08T08:25:54;99026.41;;;20.79;48.74
10587;BME280;5341;47.606;7.576;2023-08-08T08:28:22;99022.25;;;20.88;48.32
10587;BME280;5341;47.606;7.576;2023-08-08T08:30:49;99016.41;;;20.96;48.04
10587;BME280;5341;47.606;7.576;2023-08-08T08:33:17;99016.00;;;21.04;47.83
10587;BME280;5341;47.606;7.576;2023-08-08T08:35:46;99018.66;;;21.16;48.18
10587;BME280;5341;47.606;7.576;2023-08-08T08:38:13;99019.47;;;21.28;47.57
10587;BME280;5341;47.606;7.576;2023-08-08T08:40:41;99013.13;;;21.40;47.29
10587;BME280;5341;47.606;7.576;2023-08-08T08:43:11;99012.56;;;21.54;47.12
10587;BME280;5341;47.606;7.576;2023-08-08T08:45:39;99020.38;;;21.68;47.31
10587;BME280;5341;47.606;7.576;2023-08-08T08:48:10;99017.94;;;21.83;47.09
10587;BME280;5341;47.606;7.576;2023-08-08T08:50:38;99018.97;;;21.99;46.80
10587;BME280;5341;47.606;7.576;2023-08-08T08:53:08;99004.78;;;22.13;46.42
10587;BME280;5341;47.606;7.576;2023-08-08T08:55:37;99008.28;;;22.31;47.03
10587;BME280;5341;47.606;7.576;2023-08-08T08:58:04;99003.50;;;22.65;46.45
10587;BME280;5341;47.606;7.576;2023-08-08T09:00:33;98999.66;;;22.83;45.94
10587;BME280;5341;47.606;7.576;2023-08-08T09:03:00;99007.97;;;22.93;45.97
10587;BME280;5341;47.606;7.576;2023-08-08T09:05:28;98996.59;;;23.01;45.79
10587;BME280;5341;47.606;7.576;2023-08-08T09:07:57;98997.25;;;23.13;45.88
10587;BME280;5341;47.606;7.576;2023-08-08T09:10:26;98992.16;;;23.22;45.51
10587;BME280;5341;47.606;7.576;2023-08-08T09:12:54;98991.19;;;23.38;45.35
10587;BME280;5341;47.606;7.576;2023-08-08T09:15:21;98995.00;;;23.64;44.79
10587;BME280;5341;47.606;7.576;2023-08-08T09:17:49;98991.03;;;23.82;44.46
10587;BME280;5341;47.606;7.576;2023-08-08T09:20:17;98994.38;;;23.89;44.63
10587;BME280;5341;47.606;7.576;2023-08-08T09:22:46;98997.69;;;23.96;44.71
10587;BME280;5341;47.606;7.576;2023-08-08T09:25:23;98981.59;;;24.00;44.40
10587;BME280;5341;47.606;7.576;2023-08-08T09:28:08;98984.34;;;24.05;44.31
10587;BME280;5341;47.606;7.576;2023-08-08T09:30:36;98981.41;;;24.11;44.01
10587;BME280;5341;47.606;7.576;2023-08-08T09:33:06;98986.16;;;24.31;43.39
10587;BME280;5341;47.606;7.576;2023-08-08T09:35:34;98983.78;;;24.55;43.09
10587;BME280;5341;47.606;7.576;2023-08-08T09:38:01;98984.09;;;24.69;42.89
10587;BME280;5341;47.606;7.576;2023-08-08T09:40:29;98992.94;;;24.91;41.02
10587;BME280;5341;47.606;7.576;2023-08-08T09:42:57;98983.38;;;24.99;42.54
10587;BME280;5341;47.606;7.576;2023-08-08T09:45:27;98974.66;;;25.02;41.96
10587;BME280;5341;47.606;7.576;2023-08-08T09:47:54;98971.91;;;25.07;42.62
10587;BME280;5341;47.606;7.576;2023-08-08T09:50:22;98968.13;;;25.08;42.90
10587;BME280;5341;47.606;7.576;2023-08-08T09:52:49;98964.03;;;25.21;42.22
10587;BME280;5341;47.606;7.576;2023-08-08T09:55:19;98961.53;;;25.39;42.17
10587;BME280;5341;47.606;7.576;2023-08-08T09:57:47;98952.22;;;25.66;42.09
10587;BME280;5341;47.606;7.576;2023-08-08T10:00:16;98962.31;;;25.91;41.07
10587;BME280;5341;47.606;7.576;2023-08-08T10:02:49;98957.41;;;25.93;41.77
10587;BME280;5341;47.606;7.576;2023-08-08T10:05:18;98948.34;;;25.92;40.45
10587;BME280;5341;47.606;7.576;2023-08-08T10:07:46;98945.88;;;26.01;40.73
10587;BME280;5341;47.606;7.576;2023-08-08T10:10:14;98946.16;;;25.99;40.45
10587;BME280;5341;47.606;7.576;2023-08-08T10:12:45;98954.06;;;26.11;38.89
10587;BME280;5341;47.606;7.576;2023-08-08T10:15:13;98950.72;;;26.29;37.89
10587;BME280;5341;47.606;7.576;2023-08-08T10:17:41;98936.44;;;26.38;39.19
10587;BME280;5341;47.606;7.576;2023-08-08T10:20:11;98938.06;;;26.44;37.58
10587;BME280;5341;47.606;7.576;2023-08-08T10:22:42;98937.22;;;26.53;37.61
10587;BME280;5341;47.606;7.576;2023-08-08T10:25:17;98939.63;;;26.60;37.36
10587;BME280;5341;47.606;7.576;2023-08-08T10:27:45;98938.22;;;26.63;37.49
10587;BME280;5341;47.606;7.576;2023-08-08T10:30:13;98939.75;;;26.84;36.15
10587;BME280;5341;47.606;7.576;2023-08-08T10:32:43;98926.19;;;27.08;34.53
10587;BME280;5341;47.606;7.576;2023-08-08T10:35:14;98932.94;;;27.21;36.11
10587;BME280;5341;47.606;7.576;2023-08-08T10:37:53;98933.88;;;27.40;34.59
10587;BME280;5341;47.606;7.576;2023-08-08T10:40:21;98931.22;;;27.59;33.40
10587;BME280;5341;47.606;7.576;2023-08-08T10:42:48;98928.25;;;27.55;34.09
10587;BME280;5341;47.606;7.576;2023-08-08T10:45:16;98938.75;;;27.48;33.47
10587;BME280;5341;47.606;7.576;2023-08-08T10:47:43;98933.53;;;27.47;32.88
10587;BME280;5341;47.606;7.576;2023-08-08T10:50:15;98942.88;;;27.51;34.16
10587;BME280;5341;47.606;7.576;2023-08-08T10:52:53;98934.78;;;27.59;33.30
10587;BME280;5341;47.606;7.576;2023-08-08T10:55:22;98937.97;;;27.77;33.14
10587;BME280;5341;47.606;7.576;2023-08-08T10:57:58;98941.47;;;27.82;32.18
10587;BME280;5341;47.606;7.576;2023-08-08T11:00:28;98935.16;;;27.82;32.89
10587;BME280;5341;47.606;7.576;2023-08-08T11:02:58;98930.97;;;27.89;33.14
10587;BME280;5341;47.606;7.576;2023-08-08T11:05:30;98930.72;;;28.10;32.05
10587;BME280;5341;47.606;7.576;2023-08-08T11:07:58;98931.72;;;28.43;30.88
10587;BME280;5341;47.606;7.576;2023-08-08T11:10:26;98940.00;;;28.62;30.66
10587;BME280;5341;47.606;7.576;2023-08-08T11:12:58;98939.56;;;28.73;30.75
10587;BME280;5341;47.606;7.576;2023-08-08T11:15:26;98935.03;;;28.64;30.41
10587;BME280;5341;47.606;7.576;2023-08-08T11:17:54;98934.03;;;28.54;30.66
10587;BME280;5341;47.606;7.576;2023-08-08T11:20:22;98934.34;;;28.53;30.61
10587;BME280;5341;47.606;7.576;2023-08-08T11:22:55;98924.75;;;28.50;30.44
10587;BME280;5341;47.606;7.576;2023-08-08T11:25:25;98940.53;;;28.64;30.60
10587;BME280;5341;47.606;7.576;2023-08-08T11:27:54;98937.84;;;28.77;29.35
10587;BME280;5341;47.606;7.576;2023-08-08T11:30:23;98927.56;;;28.83;29.72
10587;BME280;5341;47.606;7.576;2023-08-08T11:32:51;98924.78;;;28.88;29.60
10587;BME280;5341;47.606;7.576;2023-08-08T11:35:21;98927.97;;;28.95;30.51
10587;BME280;5341;47.606;7.576;2023-08-08T11:37:50;98924.84;;;29.02;29.32
10587;BME280;5341;47.606;7.576;2023-08-08T11:40:21;98925.06;;;29.05;29.48
10587;BME280;5341;47.606;7.576;2023-08-08T11:42:50;98930.06;;;29.03;29.94
10587;BME280;5341;47.606;7.576;2023-08-08T11:45:18;98923.13;;;29.06;29.28
10587;BME280;5341;47.606;7.576;2023-08-08T11:47:48;98931.69;;;29.04;28.43
10587;BME280;5341;47.606;7.576;2023-08-08T11:50:18;98925.53;;;28.94;29.89
10587;BME280;5341;47.606;7.576;2023-08-08T11:52:46;98921.84;;;28.79;30.06
10587;BME280;5341;47.606;7.576;2023-08-08T11:55:14;98924.84;;;28.64;29.88
10587;BME280;5341;47.606;7.576;2023-08-08T11:57:44;98924.97;;;28.54;28.66
10587;BME280;5341;47.606;7.576;2023-08-08T12:00:12;98922.72;;;28.37;28.61
10587;BME280;5341;47.606;7.576;2023-08-08T12:02:40;98918.16;;;28.27;29.62
10587;BME280;5341;47.606;7.576;2023-08-08T12:05:09;98916.84;;;28.20;29.88
10587;BME280;5341;47.606;7.576;2023-08-08T12:07:38;98919.91;;;28.18;29.57
10587;BME280;5341;47.606;7.576;2023-08-08T12:10:15;98910.31;;;28.16;28.83
10587;BME280;5341;47.606;7.576;2023-08-08T12:12:45;98913.66;;;28.13;29.65
10587;BME280;5341;47.606;7.576;2023-08-08T12:15:13;98914.47;;;28.13;30.12
10587;BME280;5341;47.606;7.576;2023-08-08T12:17:42;98916.09;;;28.14;29.14
10587;BME280;5341;47.606;7.576;2023-08-08T12:20:10;98926.28;;;28.14;29.56
10587;BME280;5341;47.606;7.576;2023-08-08T12:22:38;98922.72;;;28.13;29.46
10587;BME280;5341;47.606;7.576;2023-08-08T12:25:05;98910.09;;;28.12;29.42
10587;BME280;5341;47.606;7.576;2023-08-08T12:27:34;98920.53;;;28.10;28.49
10587;BME280;5341;47.606;7.576;2023-08-08T12:30:03;98916.22;;;28.04;28.38
10587;BME280;5341;47.606;7.576;2023-08-08T12:32:32;98909.09;;;28.03;29.14
10587;BME280;5341;47.606;7.576;2023-08-08T12:34:59;98915.91;;;28.06;29.72
10587;BME280;5341;47.606;7.576;2023-08-08T12:37:28;98912.53;;;28.14;29.28
10587;BME280;5341;47.606;7.576;2023-08-08T12:39:55;98908.38;;;28.16;28.87
10587;BME280;5341;47.606;7.576;2023-08-08T12:42:23;98910.31;;;28.16;28.38
10587;BME280;5341;47.606;7.576;2023-08-08T12:44:50;98907.16;;;28.03;27.93
10587;BME280;5341;47.606;7.576;2023-08-08T12:47:19;98906.66;;;27.96;27.94
10587;BME280;5341;47.606;7.576;2023-08-08T12:49:47;98900.44;;;27.91;28.22
10587;BME280;5341;47.606;7.576;2023-08-08T12:52:15;98897.97;;;27.89;28.22
10587;BME280;5341;47.606;7.576;2023-08-08T12:54:43;98891.41;;;27.85;28.60
10587;BME280;5341;47.606;7.576;2023-08-08T12:57:10;98903.81;;;27.83;28.82
10587;BME280;5341;47.606;7.576;2023-08-08T12:59:37;98889.34;;;27.96;28.48
10587;BME280;5341;47.606;7.576;2023-08-08T13:02:05;98894.84;;;28.20;28.38
10587;BME280;5341;47.606;7.576;2023-08-08T13:04:34;98899.47;;;28.48;27.83
10587;BME280;5341;47.606;7.576;2023-08-08T13:07:01;98891.97;;;28.73;28.64
10587;BME280;5341;47.606;7.576;2023-08-08T13:09:29;98891.66;;;29.12;27.29
10587;BME280;5341;47.606;7.576;2023-08-08T13:11:57;98877.56;;;29.46;26.92
10587;BME280;5341;47.606;7.576;2023-08-08T13:14:24;98886.78;;;29.55;26.37
10587;BME280;5341;47.606;7.576;2023-08-08T13:16:52;98887.91;;;29.68;26.01